createdAt,value
2018-06-16T00:01:43.745Z,97025.53
2018-06-16T00:04:11.158Z,97029.61
2018-06-16T00:06:38.699Z,97028.59
2018-06-16T00:09:06.112Z,97028.97
2018-06-16T00:11:33.739Z,97034.48
2018-06-16T00:14:01.842Z,97035.20
2018-06-16T00:16:29.351Z,97030.30
2018-06-16T00:18:56.869Z,97031.13
2018-06-16T00:21:24.349Z,97027.09
2018-06-16T00:23:51.840Z,97031.21
2018-06-16T00:26:19.334Z,97027.32
2018-06-16T00:28:46.786Z,97028.09
2018-06-16T00:31:14.210Z,97019.23
2018-06-16T00:33:41.714Z,97020.00
2018-06-16T00:36:09.268Z,97023.58
2018-06-16T00:38:36.688Z,97015.34
2018-06-16T00:41:04.092Z,97019.20
2018-06-16T00:43:31.514Z,97015.08
2018-06-16T00:45:59.297Z,97017.66
2018-06-16T00:48:26.754Z,97024.95
2018-06-16T00:50:54.219Z,97019.95
2018-06-16T00:53:21.663Z,97020.55
2018-06-16T00:55:49.059Z,97015.63
2018-06-16T00:58:16.581Z,97015.83
2018-06-16T01:00:44.036Z,97012.77
2018-06-16T01:03:11.510Z,97009.35
2018-06-16T01:05:38.913Z,97009.71
2018-06-16T01:08:06.353Z,97011.04
2018-06-16T01:10:33.799Z,97002.22
2018-06-16T01:15:35.074Z,97004.45
2018-06-16T01:18:02.519Z,97005.56
2018-06-16T01:20:29.960Z,97004.59
2018-06-16T01:22:57.425Z,97002.62
2018-06-16T01:25:24.871Z,97009.41
2018-06-16T01:27:52.357Z,97002.80
2018-06-16T01:30:19.791Z,97012.54
2018-06-16T01:32:47.241Z,97009.91
2018-06-16T01:35:14.685Z,97013.20
2018-06-16T01:37:42.134Z,97006.33
2018-06-16T01:40:09.561Z,97006.69
2018-06-16T01:42:36.998Z,97004.72
2018-06-16T01:45:04.465Z,97004.34
2018-06-16T01:47:31.946Z,97006.47
2018-06-16T01:49:59.334Z,97010.78
2018-06-16T01:52:26.750Z,97008.63
2018-06-16T01:54:54.143Z,97011.08
2018-06-16T01:57:21.612Z,97010.95
2018-06-16T01:59:49.047Z,97016.03
2018-06-16T02:02:16.516Z,97014.14
2018-06-16T02:04:43.991Z,97014.88
2018-06-16T02:07:11.401Z,97014.31
2018-06-16T02:09:38.890Z,97025.02
2018-06-16T02:12:06.326Z,97021.81
2018-06-16T02:14:33.874Z,97023.30
2018-06-16T02:17:01.380Z,97030.34
2018-06-16T02:19:28.886Z,97030.89
2018-06-16T02:21:56.321Z,97029.37
2018-06-16T02:24:23.831Z,97032.39
2018-06-16T02:26:52.168Z,97031.95
2018-06-16T02:29:19.600Z,97026.67
2018-06-16T02:31:47.084Z,97029.70
2018-06-16T02:34:15.077Z,97029.15
2018-06-16T02:36:42.555Z,97024.84
2018-06-16T02:39:09.983Z,97022.25
2018-06-16T02:41:37.537Z,97019.41
2018-06-16T02:44:05.004Z,97018.87
2018-06-16T02:46:32.450Z,97013.56
2018-06-16T02:48:59.903Z,97012.80
2018-06-16T02:51:27.333Z,97008.70
2018-06-16T02:53:54.837Z,97013.84
2018-06-16T02:56:22.372Z,97006.80
2018-06-16T02:58:49.855Z,97006.19
2018-06-16T03:01:17.342Z,97008.54
2018-06-16T03:03:44.794Z,97010.15
2018-06-16T03:06:12.333Z,97000.33
2018-06-16T03:08:39.791Z,97003.39
2018-06-16T03:11:07.310Z,97007.17
2018-06-16T03:13:34.726Z,97008.14
2018-06-16T03:16:02.189Z,96999.91
2018-06-16T03:18:29.652Z,97007.52
2018-06-16T03:20:57.087Z,97008.63
2018-06-16T03:23:24.542Z,97008.16
2018-06-16T03:25:52.071Z,97016.59
2018-06-16T03:28:19.468Z,97010.05
2018-06-16T03:30:46.907Z,97012.70
2018-06-16T03:33:14.341Z,97017.30
2018-06-16T03:35:41.827Z,97018.94
2018-06-16T03:38:09.242Z,97019.09
2018-06-16T03:40:36.715Z,97026.50
2018-06-16T03:43:04.164Z,97033.87
2018-06-16T03:45:31.654Z,97036.67
2018-06-16T03:47:59.231Z,97039.16
2018-06-16T03:50:26.884Z,97040.36
2018-06-16T03:52:54.395Z,97045.14
2018-06-16T03:55:21.898Z,97044.73
2018-06-16T03:57:49.318Z,97054.49
2018-06-16T04:00:16.754Z,97059.50
2018-06-16T04:02:44.214Z,97061.94
2018-06-16T04:05:11.652Z,97055.81
2018-06-16T04:07:39.042Z,97053.17
2018-06-16T04:10:06.492Z,97054.20
2018-06-16T04:12:33.980Z,97051.64
2018-06-16T04:15:01.497Z,97052.13
2018-06-16T04:17:28.937Z,97060.83
2018-06-16T04:19:56.434Z,97063.59
2018-06-16T04:22:24.003Z,97059.53
2018-06-16T04:24:51.448Z,97067.15
2018-06-16T04:27:18.947Z,97060.62
2018-06-16T04:29:46.400Z,97064.84
2018-06-16T04:32:13.876Z,97064.43
2018-06-16T04:34:41.371Z,97061.94
2018-06-16T04:37:08.788Z,97066.13
2018-06-16T04:39:36.230Z,97071.13
2018-06-16T04:42:03.630Z,97068.77
2018-06-16T04:44:31.095Z,97074.47
2018-06-16T04:46:58.518Z,97075.08
2018-06-16T04:49:25.984Z,97081.19
2018-06-16T04:51:53.447Z,97077.98
2018-06-16T04:54:20.914Z,97078.66
2018-06-16T04:56:48.400Z,97072.67
2018-06-16T04:59:15.884Z,97074.16
2018-06-16T05:01:43.327Z,97078.36
2018-06-16T05:04:10.747Z,97078.02
2018-06-16T05:06:38.239Z,97070.03
2018-06-16T05:09:05.703Z,97073.30
2018-06-16T05:11:33.132Z,97074.92
2018-06-16T05:14:00.552Z,97074.03
2018-06-16T05:16:28.090Z,97073.48
2018-06-16T05:18:55.548Z,97077.49
2018-06-16T05:21:23.013Z,97073.53
2018-06-16T05:23:50.452Z,97074.91
2018-06-16T05:26:17.838Z,97077.23
2018-06-16T05:28:45.403Z,97080.35
2018-06-16T05:31:12.885Z,97081.20
2018-06-16T05:33:40.366Z,97084.31
2018-06-16T05:36:07.845Z,97091.11
2018-06-16T05:38:35.242Z,97088.45
2018-06-16T05:41:02.785Z,97089.02
2018-06-16T05:43:30.404Z,97090.61
2018-06-16T05:45:57.935Z,97085.61
2018-06-16T05:48:25.427Z,97091.06
2018-06-16T05:50:52.878Z,97093.34
2018-06-16T05:53:20.372Z,97090.88
2018-06-16T05:55:47.816Z,97092.75
2018-06-16T05:58:15.328Z,97093.38
2018-06-16T06:00:42.800Z,97083.63
2018-06-16T06:03:10.250Z,97090.13
2018-06-16T06:05:37.741Z,97091.20
2018-06-16T06:08:05.192Z,97095.08
2018-06-16T06:10:32.750Z,97098.53
2018-06-16T06:13:00.228Z,97095.55
2018-06-16T06:15:27.667Z,97098.40
2018-06-16T06:17:55.084Z,97104.99
2018-06-16T06:20:22.545Z,97097.02
2018-06-16T06:22:49.935Z,97100.11
2018-06-16T06:25:17.388Z,97095.95
2018-06-16T06:27:44.840Z,97099.05
2018-06-16T06:30:12.290Z,97102.48
2018-06-16T06:32:39.716Z,97090.96
2018-06-16T06:35:07.150Z,97096.05
2018-06-16T06:37:34.650Z,97096.09
2018-06-16T06:40:02.122Z,97095.80
2018-06-16T06:42:29.594Z,97091.95
2018-06-16T06:44:57.038Z,97086.05
2018-06-16T06:47:24.681Z,97083.05
2018-06-16T06:49:52.145Z,97084.56
2018-06-16T06:52:19.611Z,97081.90
2018-06-16T06:54:47.085Z,97086.73
2018-06-16T06:57:14.572Z,97087.80
2018-06-16T06:59:42.023Z,97084.06
2018-06-16T07:02:09.592Z,97083.59
2018-06-16T07:04:37.027Z,97080.23
2018-06-16T07:07:04.487Z,97084.11
2018-06-16T07:09:32.002Z,97085.22
2018-06-16T07:11:59.412Z,97091.73
2018-06-16T07:14:26.851Z,97087.28
2018-06-16T07:16:54.410Z,97097.77
2018-06-16T07:19:21.960Z,97095.19
2018-06-16T07:21:49.397Z,97087.69
2018-06-16T07:24:16.859Z,97090.85
2018-06-16T07:26:44.379Z,97096.47
2018-06-16T07:29:11.943Z,97096.06
2018-06-16T07:31:39.385Z,97090.88
2018-06-16T07:34:06.802Z,97093.30
2018-06-16T07:36:34.203Z,97096.27
2018-06-16T07:39:01.761Z,97095.60
2018-06-16T07:41:29.324Z,97095.91
2018-06-16T07:43:56.728Z,97095.10
2018-06-16T07:46:24.188Z,97095.96
2018-06-16T07:48:51.710Z,97091.21
2018-06-16T07:51:19.582Z,97093.17
2018-06-16T07:53:47.077Z,97089.97
2018-06-16T07:56:14.607Z,97086.45
2018-06-16T07:58:42.186Z,97081.80
2018-06-16T08:01:09.648Z,97080.25
2018-06-16T08:03:37.140Z,97089.97
2018-06-16T08:06:04.591Z,97080.94
2018-06-16T08:08:31.997Z,97091.06
2018-06-16T08:10:59.442Z,97081.03
2018-06-16T08:13:27.043Z,97084.75
2018-06-16T08:15:54.583Z,97087.78
2018-06-16T08:18:22.018Z,97082.81
2018-06-16T08:20:49.449Z,97079.18
2018-06-16T08:23:16.976Z,97078.28
2018-06-16T08:25:44.490Z,97081.78
2018-06-16T08:28:11.977Z,97080.76
2018-06-16T08:30:39.427Z,97081.91
2018-06-16T08:33:07.281Z,97072.73
2018-06-16T08:35:34.698Z,97072.38
2018-06-16T08:38:02.210Z,97081.57
2018-06-16T08:40:29.647Z,97073.27
2018-06-16T08:42:57.108Z,97076.90
2018-06-16T08:45:24.655Z,97082.11
2018-06-16T08:47:52.088Z,97072.94
2018-06-16T08:50:19.562Z,97075.76
2018-06-16T08:52:47.030Z,97075.34
2018-06-16T08:55:14.507Z,97075.16
2018-06-16T08:57:42.372Z,97076.47
2018-06-16T09:00:09.851Z,97079.47
2018-06-16T09:02:37.321Z,97081.27
2018-06-16T09:05:04.781Z,97072.45
2018-06-16T09:07:32.332Z,97071.30
2018-06-16T09:09:59.806Z,97077.09
2018-06-16T09:12:27.231Z,97075.72
2018-06-16T09:14:54.712Z,97081.48
2018-06-16T09:17:22.270Z,97078.12
2018-06-16T09:19:50.179Z,97072.42
2018-06-16T09:22:17.676Z,97082.22
2018-06-16T09:24:45.120Z,97073.87
2018-06-16T09:27:12.529Z,97075.33
2018-06-16T09:29:40.038Z,97079.39
2018-06-16T09:32:07.495Z,97073.91
2018-06-16T09:34:35.445Z,97067.97
2018-06-16T09:37:02.904Z,97070.45
2018-06-16T09:39:30.919Z,97070.28
2018-06-16T09:41:58.369Z,97067.96
2018-06-16T09:44:25.951Z,97067.80
2018-06-16T09:46:53.384Z,97066.86
2018-06-16T09:49:20.842Z,97066.77
2018-06-16T09:51:48.359Z,97066.80
2018-06-16T09:54:16.968Z,97068.39
2018-06-16T09:56:44.448Z,97056.50
2018-06-16T09:59:12.095Z,97062.30
2018-06-16T10:01:39.572Z,97063.03
2018-06-16T10:04:07.035Z,97058.97
2018-06-16T10:06:34.487Z,97059.36
2018-06-16T10:09:02.217Z,97054.84
2018-06-16T10:11:29.711Z,97054.31
2018-06-16T10:13:57.176Z,97050.70
2018-06-16T10:16:24.649Z,97055.14
2018-06-16T10:18:52.160Z,97051.70
2018-06-16T10:21:19.669Z,97051.80
2018-06-16T10:23:47.134Z,97048.11
2018-06-16T10:26:14.579Z,97047.48
2018-06-16T10:28:42.164Z,97050.58
2018-06-16T10:31:09.612Z,97050.63
2018-06-16T10:33:37.128Z,97050.71
2018-06-16T10:36:04.587Z,97048.95
2018-06-16T10:38:32.060Z,97051.20
2018-06-16T10:40:59.923Z,97049.72
2018-06-16T10:43:27.405Z,97046.89
2018-06-16T10:45:54.844Z,97049.13
2018-06-16T10:48:22.494Z,97046.31
2018-06-16T10:50:49.950Z,97048.70
2018-06-16T10:53:17.399Z,97043.90
2018-06-16T10:55:45.760Z,97042.91
2018-06-16T10:58:13.242Z,97040.39
2018-06-16T11:00:40.813Z,97052.02
2018-06-16T11:03:08.888Z,97048.29
2018-06-16T11:05:36.470Z,97051.50
2018-06-16T11:08:03.890Z,97044.66
2018-06-16T11:10:31.359Z,97046.00
2018-06-16T11:12:59.002Z,97042.14
2018-06-16T11:15:26.478Z,97047.28
2018-06-16T11:17:53.951Z,97043.86
2018-06-16T11:20:20.935Z,97042.22
2018-06-16T11:22:47.912Z,97039.47
2018-06-16T11:25:14.941Z,97040.28
2018-06-16T11:27:42.413Z,97032.71
2018-06-16T11:30:09.861Z,97041.98
2018-06-16T11:32:37.271Z,97040.50
2018-06-16T11:35:04.855Z,97034.83
2018-06-16T11:37:32.314Z,97031.62
2018-06-16T11:39:59.731Z,97034.30
2018-06-16T11:42:27.162Z,97035.88
2018-06-16T11:44:54.661Z,97031.48
2018-06-16T11:47:22.146Z,97038.76
2018-06-16T11:49:49.653Z,97033.31
2018-06-16T11:52:17.334Z,97038.91
2018-06-16T11:54:44.907Z,97029.77
2018-06-16T11:57:12.349Z,97029.88
2018-06-16T11:59:39.952Z,97033.20
2018-06-16T12:02:07.462Z,97031.78
2018-06-16T12:04:34.908Z,97027.42
2018-06-16T12:07:02.880Z,97020.58
2018-06-16T12:09:30.346Z,97019.61
2018-06-16T12:11:57.780Z,97022.38
2018-06-16T12:14:25.314Z,97019.30
2018-06-16T12:16:52.775Z,97011.80
2018-06-16T12:19:20.291Z,97011.47
2018-06-16T12:21:47.783Z,97008.35
2018-06-16T12:24:15.396Z,97010.23
2018-06-16T12:26:42.869Z,97008.06
2018-06-16T12:29:10.426Z,97007.56
2018-06-16T12:31:38.077Z,97004.97
2018-06-16T12:34:05.624Z,97007.30
2018-06-16T12:36:33.077Z,97000.64
2018-06-16T12:39:00.607Z,97005.80
2018-06-16T12:41:28.253Z,97002.11
2018-06-16T12:43:55.788Z,97001.99
2018-06-16T12:46:23.237Z,97003.11
2018-06-16T12:48:50.787Z,96999.18
2018-06-16T12:51:18.251Z,97004.00
2018-06-16T12:53:45.686Z,97004.41
2018-06-16T12:56:13.132Z,97002.64
2018-06-16T12:58:40.607Z,97006.63
2018-06-16T13:01:08.055Z,97004.48
2018-06-16T13:03:35.635Z,97009.97
2018-06-16T13:06:03.119Z,97006.95
2018-06-16T13:08:30.631Z,96994.20
2018-06-16T13:10:58.113Z,96991.42
2018-06-16T13:13:25.591Z,96993.25
2018-06-16T13:15:53.058Z,96995.95
2018-06-16T13:18:20.571Z,96990.42
2018-06-16T13:20:47.554Z,96979.77
2018-06-16T13:23:14.519Z,96978.70
2018-06-16T13:25:41.535Z,96974.32
2018-06-16T13:28:08.603Z,96977.05
2018-06-16T13:30:36.014Z,96974.94
2018-06-16T13:33:04.475Z,96984.39
2018-06-16T13:35:31.654Z,96973.36
2018-06-16T13:37:58.710Z,96983.52
2018-06-16T13:40:26.134Z,96976.89
2018-06-16T13:42:53.334Z,96972.45
2018-06-16T13:45:20.806Z,96979.17
2018-06-16T13:47:47.845Z,96976.47
2018-06-16T13:50:14.891Z,96973.28
2018-06-16T13:52:42.332Z,96975.47
2018-06-16T13:55:09.429Z,96976.27
2018-06-16T13:57:36.835Z,96978.83
2018-06-16T14:00:03.869Z,96972.66
2018-06-16T14:02:31.428Z,96970.75
2018-06-16T14:04:58.916Z,96967.52
2018-06-16T14:07:26.339Z,96963.48
2018-06-16T14:09:54.286Z,96961.45
2018-06-16T14:12:21.766Z,96960.86
2018-06-16T14:14:50.312Z,96960.65
2018-06-16T14:17:17.727Z,96966.14
2018-06-16T14:19:45.134Z,96960.23
2018-06-16T14:22:12.598Z,96957.45
2018-06-16T14:24:40.055Z,96953.22
2018-06-16T14:27:07.557Z,96958.56
2018-06-16T14:29:35.275Z,96950.38
2018-06-16T14:32:02.730Z,96943.16
2018-06-16T14:34:30.134Z,96949.36
2018-06-16T14:36:57.600Z,96954.93
2018-06-16T14:39:25.026Z,96956.80
2018-06-16T14:41:52.541Z,96961.26
2018-06-16T14:44:19.994Z,96956.19
2018-06-16T14:46:47.483Z,96956.96
2018-06-16T14:49:14.986Z,96955.69
2018-06-16T14:51:42.417Z,96964.54
2018-06-16T14:54:09.847Z,96956.69
2018-06-16T14:56:37.326Z,96960.13
2018-06-16T14:59:04.765Z,96953.42
2018-06-16T15:01:32.282Z,96947.41
2018-06-16T15:03:59.720Z,96953.31
2018-06-16T15:06:27.807Z,96947.16
2018-06-16T15:08:55.364Z,96954.35
2018-06-16T15:11:22.993Z,96947.80
2018-06-16T15:13:51.346Z,96947.21
2018-06-16T15:16:18.810Z,96954.33
2018-06-16T15:18:46.248Z,96950.40
2018-06-16T15:21:13.659Z,96952.16
2018-06-16T15:23:41.212Z,96944.28
2018-06-16T15:26:08.739Z,96940.23
2018-06-16T15:28:36.245Z,96942.78
2018-06-16T15:31:03.888Z,96936.79
2018-06-16T15:33:31.587Z,96938.84
2018-06-16T15:35:59.103Z,96938.75
2018-06-16T15:38:27.025Z,96940.42
2018-06-16T15:40:54.601Z,96935.10
2018-06-16T15:43:22.263Z,96937.30
2018-06-16T15:45:50.507Z,96937.33
2018-06-16T15:48:18.152Z,96939.43
2018-06-16T15:50:46.268Z,96947.16
2018-06-16T15:53:13.798Z,96948.32
2018-06-16T15:55:41.359Z,96950.70
2018-06-16T15:58:08.791Z,96953.36
2018-06-16T16:00:36.394Z,96949.42
2018-06-16T16:03:03.931Z,96947.98
2018-06-16T16:05:31.409Z,96949.28
2018-06-16T16:07:58.954Z,96946.38
2018-06-16T16:10:27.549Z,96941.64
2018-06-16T16:12:55.045Z,96943.38
2018-06-16T16:15:22.484Z,96945.55
2018-06-16T16:17:49.932Z,96945.62
2018-06-16T16:20:17.494Z,96944.66
2018-06-16T16:22:45.047Z,96942.02
2018-06-16T16:25:12.515Z,96950.29
2018-06-16T16:27:40.016Z,96949.29
2018-06-16T16:30:07.472Z,96948.41
2018-06-16T16:32:35.110Z,96945.84
2018-06-16T16:35:02.654Z,96950.86
2018-06-16T16:37:30.121Z,96944.43
2018-06-16T16:39:57.565Z,96942.10
2018-06-16T16:42:25.046Z,96947.74
2018-06-16T16:44:52.941Z,96940.55
2018-06-16T16:47:20.744Z,96944.59
2018-06-16T16:49:48.259Z,96943.69
2018-06-16T16:52:15.701Z,96946.52
2018-06-16T16:54:43.182Z,96942.18
2018-06-16T16:57:10.652Z,96936.53
2018-06-16T16:59:39.030Z,96941.84
2018-06-16T17:02:06.503Z,96942.34
2018-06-16T17:04:33.968Z,96937.36
2018-06-16T17:07:02.253Z,96950.57
2018-06-16T17:09:29.759Z,96951.00
2018-06-16T17:11:57.561Z,96948.22
2018-06-16T17:14:25.188Z,96945.19
2018-06-16T17:16:52.661Z,96952.14
2018-06-16T17:19:20.176Z,96950.09
2018-06-16T17:21:47.742Z,96952.78
2018-06-16T17:24:15.438Z,96953.63
2018-06-16T17:26:43.060Z,96963.45
2018-06-16T17:29:10.563Z,96956.89
2018-06-16T17:31:38.008Z,96955.52
2018-06-16T17:34:05.430Z,96955.64
2018-06-16T17:36:32.921Z,96951.91
2018-06-16T17:39:00.486Z,96959.11
2018-06-16T17:41:27.970Z,96959.29
2018-06-16T17:43:55.537Z,96950.45
2018-06-16T17:46:23.370Z,96950.56
2018-06-16T17:48:50.864Z,96956.21
2018-06-16T17:51:18.614Z,96958.66
2018-06-16T17:53:46.225Z,96954.43
2018-06-16T17:56:13.762Z,96956.38
2018-06-16T17:58:41.274Z,96963.20
2018-06-16T18:01:08.733Z,96960.96
2018-06-16T18:03:36.272Z,96972.73
2018-06-16T18:06:04.746Z,96972.77
2018-06-16T18:08:32.242Z,96975.16
2018-06-16T18:10:59.783Z,96968.21
2018-06-16T18:13:27.393Z,96977.94
2018-06-16T18:15:55.009Z,96977.56
2018-06-16T18:18:22.529Z,96977.31
2018-06-16T18:20:50.298Z,96981.07
2018-06-16T18:23:17.345Z,96976.99
2018-06-16T18:25:45.004Z,96981.13
2018-06-16T18:28:12.109Z,96980.66
2018-06-16T18:30:39.242Z,96980.34
2018-06-16T18:33:07.161Z,96986.17
2018-06-16T18:35:34.665Z,96988.17
2018-06-16T18:38:02.191Z,96986.03
2018-06-16T18:40:29.627Z,96989.09
2018-06-16T18:42:57.303Z,96992.69
2018-06-16T18:45:24.820Z,96991.16
2018-06-16T18:47:52.634Z,96993.09
2018-06-16T18:50:20.118Z,96995.75
2018-06-16T18:52:48.189Z,97008.59
2018-06-16T18:55:15.784Z,97007.94
2018-06-16T18:57:43.263Z,97012.96
2018-06-16T19:00:10.774Z,97018.13
2018-06-16T19:02:38.197Z,97014.65
2018-06-16T19:05:05.939Z,97015.56
2018-06-16T19:07:33.412Z,97021.27
2018-06-16T19:10:00.903Z,97028.87
2018-06-16T19:12:28.431Z,97027.41
2018-06-16T19:14:55.919Z,97037.81
2018-06-16T19:17:23.373Z,97034.52
2018-06-16T19:19:50.894Z,97041.28
2018-06-16T19:22:18.400Z,97042.05
2018-06-16T19:24:45.968Z,97045.92
2018-06-16T19:27:13.448Z,97054.65
2018-06-16T19:29:40.946Z,97056.16
2018-06-16T19:32:08.526Z,97055.27
2018-06-16T19:34:36.020Z,97057.77
2018-06-16T19:37:03.570Z,97059.55
2018-06-16T19:39:32.126Z,97059.97
2018-06-16T19:41:59.586Z,97065.19
2018-06-16T19:44:27.143Z,97066.94
2018-06-16T19:46:54.611Z,97067.35
2018-06-16T19:49:22.026Z,97072.41
2018-06-16T19:51:49.925Z,97070.65
2018-06-16T19:54:17.640Z,97069.99
2018-06-16T19:56:45.111Z,97082.33
2018-06-16T19:59:12.524Z,97082.66
2018-06-16T20:01:40.110Z,97086.20
2018-06-16T20:04:07.696Z,97092.14
2018-06-16T20:06:36.126Z,97088.77
2018-06-16T20:09:03.555Z,97102.29
2018-06-16T20:11:31.111Z,97099.68
2018-06-16T20:13:58.617Z,97104.55
2018-06-16T20:16:26.078Z,97105.48
2018-06-16T20:18:53.572Z,97100.49
2018-06-16T20:21:21.072Z,97105.12
2018-06-16T20:23:48.551Z,97108.53
2018-06-16T20:26:15.999Z,97108.41
2018-06-16T20:28:43.417Z,97110.41
2018-06-16T20:31:10.861Z,97112.74
2018-06-16T20:33:38.506Z,97116.61
2018-06-16T20:36:05.944Z,97122.35
2018-06-16T20:38:33.410Z,97120.17
2018-06-16T20:41:01.031Z,97126.66
2018-06-16T20:43:28.604Z,97126.63
2018-06-16T20:45:56.196Z,97125.99
2018-06-16T20:48:24.355Z,97127.06
2018-06-16T20:50:51.841Z,97131.77
2018-06-16T20:53:20.045Z,97140.02
2018-06-16T20:55:47.713Z,97137.20
2018-06-16T20:58:15.247Z,97143.40
2018-06-16T21:00:42.913Z,97143.79
2018-06-16T21:03:10.506Z,97147.83
2018-06-16T21:05:38.181Z,97150.29
2018-06-16T21:08:05.615Z,97147.88
2018-06-16T21:10:33.048Z,97145.05
2018-06-16T21:13:00.625Z,97138.80
2018-06-16T21:15:28.039Z,97139.98
2018-06-16T21:17:55.501Z,97141.64
2018-06-16T21:20:22.956Z,97140.30
2018-06-16T21:22:50.401Z,97141.76
2018-06-16T21:25:18.562Z,97145.22
2018-06-16T21:27:47.378Z,97148.48
2018-06-16T21:30:15.032Z,97147.66
2018-06-16T21:32:42.991Z,97149.67
2018-06-16T21:35:10.470Z,97148.45
2018-06-16T21:37:37.909Z,97143.87
2018-06-16T21:40:05.409Z,97143.41
2018-06-16T21:42:32.849Z,97140.48
2018-06-16T21:45:00.316Z,97138.64
2018-06-16T21:47:27.842Z,97138.69
2018-06-16T21:49:55.616Z,97137.47
2018-06-16T21:52:23.126Z,97138.81
2018-06-16T21:54:50.761Z,97143.91
2018-06-16T21:57:18.356Z,97140.76
2018-06-16T21:59:45.839Z,97137.84
2018-06-16T22:02:13.357Z,97139.53
2018-06-16T22:04:40.880Z,97143.55
2018-06-16T22:07:08.669Z,97138.97
2018-06-16T22:09:36.292Z,97144.92
2018-06-16T22:12:03.766Z,97154.43
2018-06-16T22:14:31.346Z,97159.02
2018-06-16T22:16:58.874Z,97160.19
2018-06-16T22:19:26.361Z,97155.70
2018-06-16T22:21:53.800Z,97157.93
2018-06-16T22:24:21.388Z,97155.26
2018-06-16T22:26:48.954Z,97155.77
2018-06-16T22:29:16.590Z,97159.36
2018-06-16T22:31:44.120Z,97154.94
2018-06-16T22:34:11.686Z,97157.10
2018-06-16T22:36:39.118Z,97156.33
2018-06-16T22:39:06.679Z,97156.33
2018-06-16T22:41:34.318Z,97154.73
2018-06-16T22:44:01.874Z,97156.03
2018-06-16T22:46:29.424Z,97153.11
2018-06-16T22:48:56.875Z,97152.19
2018-06-16T22:51:24.508Z,97153.05
2018-06-16T22:53:53.001Z,97153.45
2018-06-16T22:56:20.568Z,97146.68
2018-06-16T22:58:48.024Z,97149.20
2018-06-16T23:01:15.666Z,97148.02
2018-06-16T23:03:43.169Z,97146.68
2018-06-16T23:06:11.612Z,97143.66
2018-06-16T23:08:39.389Z,97140.66
2018-06-16T23:11:06.875Z,97150.27
2018-06-16T23:13:34.508Z,97146.93
2018-06-16T23:16:02.094Z,97148.93
2018-06-16T23:18:29.666Z,97148.61
2018-06-16T23:20:57.206Z,97144.12
2018-06-16T23:23:24.744Z,97144.88
2018-06-16T23:25:52.220Z,97150.80
2018-06-16T23:28:19.715Z,97154.47
2018-06-16T23:30:47.140Z,97149.30
2018-06-16T23:33:14.591Z,97153.38
2018-06-16T23:35:42.083Z,97151.54
2018-06-16T23:38:09.617Z,97152.34
2018-06-16T23:40:37.583Z,97155.42
2018-06-16T23:43:05.206Z,97152.27
2018-06-16T23:45:32.791Z,97147.66
2018-06-16T23:48:00.252Z,97146.42
2018-06-16T23:50:27.755Z,97151.28
2018-06-16T23:52:55.438Z,97147.87
2018-06-16T23:55:22.970Z,97150.05
2018-06-16T23:57:50.452Z,97154.56
